Orr, Minnesota
Current Conditions -  °F | °C
As of 2:13 PM on Thursday 30 Oct 2014 (Local Time) from KORB Reporting Station
Light Snow Light Snow  
Wind Chill: 26°   Ceiling: 1100
Heat Index: 34°   Visibility: 2.5mi
Dew Point: 30°   Wind: 9mph
Humidity: 87%   Direction: 330°NNW
Pressure: 30.09"   Gusts: 18mph
Location:  48.05°N, 92.83°W
Report Text: KORB 301913Z AUTO 33008G16KT 2 1/2SM -SN BKN011 BKN038 OVC044 01/M01 A3009 RMK AO2 VIS 1 1/2V4
Loading
Personal Weather Stations






























Interactive Weather Map
Tropical Storm Tracking
New forecast layout! Learn more

10-Day Weather Forecast

Advertisements
Track Severe Weather on mobile